SBBE/BEL METAR and TAF weather

Enter ICAO airport designator
Station Type Date Time Source
SBBE METAR 2020/01/22 21:00 UTC NOAA

SBBE 222100Z 02009KT 9999 FEW025 SCT100 28/23 Q1008


Station Type Date Time Source
SBBE Decoded METAR 2020/01/22 21:00 UTC NOAA

Belem Aeroporto , Brazil (SBBE) 01-23S 048-29W 16M
Jan 22, 2020 - 04:00 PM EST / 2020.01.22 2100 UTC
Wind: from the NNE (020 degrees) at 10 MPH (9 KT):0
Visibility: greater than 7 mile(s):0
Sky conditions: partly cloudy
Temperature: 82 F (28 C)
Dew Point: 73 F (23 C)
Relative Humidity: 74%
Pressure (altimeter): 29.77 in. Hg (1008 hPa)
ob: SBBE 222100Z 02009KT 9999 FEW025 SCT100 28/23 Q1008
cycle: 21

Station Type Date Time Source
SBBE TAF 2020/01/22 18:24 UTC NOAA

TAF TAF SBBE 221615Z 2218/2318 01010KT 5000 SHRA BKN023 FEW030TCU TN24/2309Z TX29/2317Z
BECMG 2220/2223 06007KT 8000 NSW SCT020
BECMG 2314/2316 02010KT 5000 SHRA BKN023 FEW030TCU
RMK PHC

Example: see airport list